createdAt,value
2022-08-23T00:00:13.107Z,13.05
2022-08-23T00:02:42.532Z,13.04
2022-08-23T00:05:12.493Z,13.05
2022-08-23T00:07:44.093Z,12.99
2022-08-23T00:10:16.056Z,12.94
2022-08-23T00:12:45.413Z,13.09
2022-08-23T00:15:17.182Z,13.04
2022-08-23T00:17:46.361Z,13.04
2022-08-23T00:20:18.239Z,12.99
2022-08-23T00:22:48.188Z,12.89
2022-08-23T00:25:16.884Z,12.77
2022-08-23T00:27:45.499Z,13.03
2022-08-23T00:30:16.127Z,12.95
2022-08-23T00:32:45.377Z,12.99
2022-08-23T00:35:26.244Z,12.99
2022-08-23T00:38:32.350Z,12.96
2022-08-23T00:40:48.613Z,12.92
2022-08-23T00:43:48.111Z,12.71
2022-08-23T00:46:45.232Z,12.86
2022-08-23T00:49:14.213Z,12.82
2022-08-23T00:51:53.212Z,12.78
2022-08-23T00:54:26.190Z,12.81
2022-08-23T00:56:55.882Z,12.73
2022-08-23T00:59:24.871Z,12.74
2022-08-23T01:01:53.592Z,12.67
2022-08-23T01:04:22.246Z,12.68
2022-08-23T01:06:55.385Z,12.61
2022-08-23T01:09:25.141Z,12.63
2022-08-23T01:11:57.638Z,12.61
2022-08-23T01:14:30.695Z,12.59
2022-08-23T01:17:04.141Z,12.38
2022-08-23T01:19:38.867Z,12.44
2022-08-23T01:22:16.388Z,12.54
2022-08-23T01:24:59.856Z,12.34
2022-08-23T01:27:35.821Z,12.54
2022-08-23T01:30:05.229Z,12.57
2022-08-23T01:32:35.847Z,12.43
2022-08-23T01:35:04.327Z,12.35
2022-08-23T01:37:32.454Z,12.40
2022-08-23T01:40:01.988Z,12.51
2022-08-23T01:42:31.095Z,12.47
2022-08-23T01:44:59.390Z,12.36
2022-08-23T01:47:27.806Z,12.48
2022-08-23T01:49:55.721Z,12.52
2022-08-23T01:52:23.743Z,12.41
2022-08-23T01:54:51.874Z,12.33
2022-08-23T01:57:21.275Z,12.58
2022-08-23T01:59:49.330Z,12.58
2022-08-23T02:02:19.937Z,12.51
2022-08-23T02:04:50.077Z,12.58
2022-08-23T02:07:18.657Z,12.40
2022-08-23T02:09:47.003Z,12.32
2022-08-23T02:39:02.351Z,12.43
2022-08-23T02:42:02.352Z,12.14
2022-08-23T02:44:42.091Z,12.21
2022-08-23T02:47:12.530Z,12.45
2022-08-23T02:49:41.331Z,12.18
2022-08-23T02:52:09.430Z,12.38
2022-08-23T02:54:38.887Z,12.25
2022-08-23T02:57:07.828Z,12.40
2022-08-23T02:59:36.138Z,12.42
2022-08-23T03:02:04.191Z,12.39
2022-08-23T03:04:32.256Z,12.28
2022-08-23T03:07:00.373Z,12.17
2022-08-23T03:09:28.270Z,12.31
2022-08-23T03:11:57.517Z,12.31
2022-08-23T03:14:27.622Z,12.28
2022-08-23T03:16:58.298Z,12.22
2022-08-23T03:19:26.470Z,12.31
2022-08-23T03:21:54.527Z,12.31
2022-08-23T03:24:22.900Z,12.30
2022-08-23T03:26:51.184Z,12.16
2022-08-23T03:29:20.684Z,12.20
2022-08-23T03:31:48.983Z,12.35
2022-08-23T03:34:17.621Z,12.35
2022-08-23T03:36:45.675Z,12.21
2022-08-23T03:39:14.425Z,12.16
2022-08-23T03:41:42.346Z,12.28
2022-08-23T03:44:10.405Z,12.29
2022-08-23T03:46:39.979Z,12.30
2022-08-23T03:49:08.014Z,12.32
2022-08-23T03:51:36.084Z,12.36
2022-08-23T03:54:04.721Z,12.28
2022-08-23T03:56:35.355Z,12.39
2022-08-23T03:59:09.248Z,12.34
2022-08-23T04:01:37.272Z,12.45
2022-08-23T04:04:07.610Z,12.43
2022-08-23T04:06:35.793Z,12.38
2022-08-23T04:09:04.476Z,12.51
2022-08-23T04:11:33.075Z,12.59
2022-08-23T04:14:01.111Z,12.62
2022-08-23T04:16:30.370Z,12.64
2022-08-23T04:18:58.792Z,12.48
2022-08-23T04:21:31.106Z,12.43
2022-08-23T04:23:59.785Z,12.69
2022-08-23T04:26:30.636Z,12.63
2022-08-23T04:28:59.172Z,12.43
2022-08-23T04:31:27.757Z,12.81
2022-08-23T04:34:02.884Z,12.57
2022-08-23T04:36:40.835Z,12.58
2022-08-23T04:39:14.047Z,12.67
2022-08-23T04:41:59.512Z,13.06
2022-08-23T04:44:27.944Z,13.16
2022-08-23T04:46:55.865Z,13.14
2022-08-23T04:49:24.619Z,13.34
2022-08-23T04:51:54.552Z,13.40
2022-08-23T04:54:23.438Z,13.30
2022-08-23T04:56:51.928Z,13.26
2022-08-23T04:59:20.301Z,13.61
2022-08-23T05:01:48.921Z,13.64
2022-08-23T05:04:17.238Z,13.87
2022-08-23T05:06:46.604Z,13.86
2022-08-23T05:09:20.714Z,13.99
2022-08-23T05:11:49.669Z,14.04
2022-08-23T05:14:18.089Z,14.25
2022-08-23T05:16:46.003Z,14.38
2022-08-23T05:19:14.031Z,14.46
2022-08-23T05:21:43.773Z,14.54
2022-08-23T05:24:13.549Z,14.67
2022-08-23T05:26:43.503Z,14.79
2022-08-23T05:29:11.640Z,14.90
2022-08-23T05:31:40.182Z,14.82
2022-08-23T05:34:08.743Z,15.08
2022-08-23T05:36:37.765Z,15.16
2022-08-23T05:39:35.534Z,15.26
2022-08-23T05:42:05.975Z,15.46
2022-08-23T05:44:36.426Z,15.47
2022-08-23T05:47:10.804Z,15.59
2022-08-23T05:49:40.856Z,15.72
2022-08-23T05:52:11.741Z,15.77
2022-08-23T05:54:39.678Z,15.90
2022-08-23T05:57:10.612Z,16.01
2022-08-23T05:59:38.657Z,16.10
2022-08-23T06:02:06.639Z,16.09
2022-08-23T06:04:34.626Z,16.23
2022-08-23T06:07:02.624Z,16.29
2022-08-23T06:09:30.797Z,16.40
2022-08-23T06:11:59.390Z,16.54
2022-08-23T06:14:28.898Z,16.66
2022-08-23T06:16:57.021Z,16.79
2022-08-23T06:19:25.414Z,16.87
2022-08-23T06:21:55.160Z,16.74
2022-08-23T06:24:24.059Z,17.13
2022-08-23T06:26:51.986Z,17.15
2022-08-23T06:29:20.998Z,17.19
2022-08-23T06:31:53.695Z,17.38
2022-08-23T06:34:24.932Z,17.45
2022-08-23T06:36:55.302Z,17.59
2022-08-23T06:39:25.375Z,17.70
2022-08-23T06:41:54.683Z,17.78
2022-08-23T06:44:22.832Z,17.69
2022-08-23T06:46:52.227Z,17.94
2022-08-23T06:49:20.177Z,17.99
2022-08-23T06:51:53.316Z,18.13
2022-08-23T06:54:23.656Z,18.22
2022-08-23T06:56:55.358Z,18.29
2022-08-23T06:59:23.646Z,18.38
2022-08-23T07:01:55.084Z,18.41
2022-08-23T07:04:27.164Z,18.56
2022-08-23T07:06:55.562Z,18.63
2022-08-23T07:09:23.618Z,18.75
2022-08-23T07:11:51.718Z,18.68
2022-08-23T07:14:22.535Z,18.92
2022-08-23T07:16:54.157Z,19.05
2022-08-23T07:19:28.895Z,19.23
2022-08-23T07:21:57.591Z,19.36
2022-08-23T07:24:30.656Z,19.54
2022-08-23T07:27:01.662Z,19.70
2022-08-23T07:29:30.161Z,19.83
2022-08-23T07:31:59.785Z,19.90
2022-08-23T07:34:28.023Z,19.99
2022-08-23T07:36:56.793Z,20.13
2022-08-23T07:39:26.418Z,20.11
2022-08-23T07:41:54.652Z,20.27
2022-08-23T07:44:27.173Z,20.42
2022-08-23T07:46:55.897Z,20.45
2022-08-23T07:49:29.421Z,20.58
2022-08-23T07:51:59.890Z,20.83
2022-08-23T07:54:28.953Z,20.97
2022-08-23T07:56:56.981Z,21.01
2022-08-23T07:59:25.014Z,20.76
2022-08-23T08:01:53.308Z,20.89
2022-08-23T08:04:21.372Z,20.97
2022-08-23T08:07:10.513Z,20.94
2022-08-23T08:09:40.692Z,21.24
2022-08-23T08:12:08.964Z,21.28
2022-08-23T08:14:37.329Z,21.27
2022-08-23T08:17:07.126Z,21.31
2022-08-23T08:19:38.102Z,21.15
2022-08-23T08:22:07.610Z,21.54
2022-08-23T08:24:35.552Z,21.69
2022-08-23T08:27:03.648Z,21.76
2022-08-23T08:29:31.966Z,21.71
2022-08-23T08:32:00.086Z,21.82
2022-08-23T08:34:28.215Z,22.25
2022-08-23T08:36:58.942Z,22.34
2022-08-23T08:39:31.962Z,22.32
2022-08-23T08:42:13.442Z,22.50
2022-08-23T08:44:46.291Z,22.38
2022-08-23T08:47:20.961Z,22.81
2022-08-23T08:49:53.643Z,22.96
2022-08-23T08:52:26.068Z,23.27
2022-08-23T08:55:04.343Z,23.98
2022-08-23T08:57:37.730Z,24.15
2022-08-23T09:00:10.499Z,24.33
2022-08-23T09:02:39.197Z,24.61
2022-08-23T09:05:12.341Z,24.67
2022-08-23T09:07:52.096Z,24.52
2022-08-23T09:10:45.744Z,24.73
2022-08-23T09:13:33.637Z,25.00
2022-08-23T09:16:13.577Z,25.13
2022-08-23T09:18:41.766Z,25.60
2022-08-23T09:21:11.837Z,25.92
2022-08-23T09:23:44.914Z,25.84
2022-08-23T09:26:23.226Z,26.30
2022-08-23T09:28:53.657Z,26.36
2022-08-23T09:31:37.501Z,26.34
2022-08-23T09:34:06.147Z,25.98
2022-08-23T09:36:37.403Z,25.75
2022-08-23T09:39:09.117Z,25.38
2022-08-23T09:41:41.679Z,25.23
2022-08-23T09:44:13.881Z,25.22
2022-08-23T09:46:44.344Z,24.98
2022-08-23T09:49:26.640Z,24.88
2022-08-23T09:51:56.922Z,24.50
2022-08-23T09:54:31.194Z,24.37
2022-08-23T09:57:06.334Z,24.21
2022-08-23T09:59:41.990Z,24.05
2022-08-23T10:02:19.450Z,23.94
2022-08-23T10:05:03.742Z,23.56
2022-08-23T10:07:40.418Z,23.64
2022-08-23T10:10:27.166Z,23.79
2022-08-23T10:12:59.038Z,23.99
2022-08-23T10:15:37.049Z,24.20
2022-08-23T10:18:12.306Z,24.46
2022-08-23T10:20:49.240Z,24.47
2022-08-23T10:23:26.124Z,24.57
2022-08-23T10:25:58.636Z,24.48
2022-08-23T10:28:57.722Z,24.50
2022-08-23T10:31:36.225Z,24.36
2022-08-23T10:34:29.967Z,24.55
2022-08-23T10:37:11.094Z,24.38
2022-08-23T10:39:46.723Z,24.51
2022-08-23T10:42:25.807Z,24.61
2022-08-23T10:45:04.391Z,25.00
2022-08-23T10:47:41.776Z,25.59
2022-08-23T10:50:13.786Z,25.91
2022-08-23T10:52:51.826Z,25.73
2022-08-23T10:55:36.831Z,25.57
2022-08-23T10:58:17.649Z,25.50
2022-08-23T11:00:51.282Z,24.96
2022-08-23T11:03:29.097Z,25.28
2022-08-23T11:06:42.284Z,25.07
2022-08-23T11:09:29.642Z,24.88
2022-08-23T11:12:21.728Z,24.78
2022-08-23T11:15:04.023Z,24.96
2022-08-23T11:17:44.760Z,24.97
2022-08-23T11:20:15.047Z,24.98
2022-08-23T11:23:17.750Z,25.01
2022-08-23T11:25:46.988Z,24.73
2022-08-23T11:28:44.183Z,24.60
2022-08-23T11:31:28.448Z,24.54
2022-08-23T11:34:05.928Z,24.46
2022-08-23T11:36:35.494Z,24.30
2022-08-23T11:39:12.113Z,24.06
2022-08-23T11:42:03.616Z,23.98
2022-08-23T11:44:42.590Z,23.61
2022-08-23T11:47:12.468Z,23.62
2022-08-23T11:50:03.306Z,23.63
2022-08-23T11:53:19.481Z,23.65
2022-08-23T11:56:08.936Z,23.49
2022-08-23T11:58:58.408Z,23.51
2022-08-23T12:01:33.071Z,23.52
2022-08-23T12:04:09.755Z,23.53
2022-08-23T12:06:50.960Z,23.70
2022-08-23T12:09:52.265Z,23.59
2022-08-23T12:12:47.012Z,23.60
2022-08-23T12:15:18.774Z,23.52
2022-08-23T12:18:11.650Z,23.76
2022-08-23T12:20:41.713Z,23.60
2022-08-23T12:23:22.286Z,23.42
2022-08-23T12:26:02.135Z,23.33
2022-08-23T12:28:40.360Z,23.42
2022-08-23T12:31:18.938Z,23.68
2022-08-23T12:33:56.669Z,23.88
2022-08-23T12:36:34.097Z,24.01
2022-08-23T12:39:08.900Z,24.14
2022-08-23T12:41:52.352Z,24.20
2022-08-23T12:44:23.322Z,24.16
2022-08-23T12:46:52.833Z,24.14
2022-08-23T12:49:28.742Z,23.96
2022-08-23T12:51:59.284Z,24.04
2022-08-23T12:54:37.772Z,23.80
2022-08-23T12:57:11.825Z,23.76
2022-08-23T12:59:50.655Z,23.76
2022-08-23T13:02:25.965Z,23.61
2022-08-23T13:04:58.481Z,23.67
2022-08-23T13:07:27.579Z,23.62
2022-08-23T13:09:57.758Z,23.45
2022-08-23T13:12:28.085Z,23.38
2022-08-23T13:15:01.471Z,23.15
2022-08-23T13:17:39.287Z,23.08
2022-08-23T13:20:21.789Z,22.90
2022-08-23T13:23:01.085Z,22.68
2022-08-23T13:25:33.934Z,22.54
2022-08-23T13:28:06.593Z,22.44
2022-08-23T13:30:37.387Z,22.38
2022-08-23T13:33:23.095Z,22.20
2022-08-23T13:35:54.085Z,22.07
2022-08-23T13:38:31.111Z,21.96
2022-08-23T13:41:10.887Z,21.79
2022-08-23T13:43:46.607Z,21.65
2022-08-23T13:46:19.335Z,21.53
2022-08-23T13:48:55.685Z,21.34
2022-08-23T13:51:33.375Z,21.30
2022-08-23T13:54:03.778Z,21.18
2022-08-23T13:56:37.795Z,21.00
2022-08-23T13:59:18.666Z,20.92
2022-08-23T14:01:46.734Z,20.82
2022-08-23T14:04:18.675Z,20.77
2022-08-23T14:06:53.044Z,20.62
2022-08-23T14:09:21.199Z,20.66
2022-08-23T14:11:55.406Z,20.60
2022-08-23T14:14:24.360Z,20.71
2022-08-23T14:16:54.400Z,20.58
2022-08-23T14:22:10.734Z,20.53
2022-08-23T14:24:38.916Z,20.38
2022-08-23T14:27:09.723Z,20.44
2022-08-23T14:29:38.921Z,20.55
2022-08-23T14:32:07.225Z,20.55
2022-08-23T14:34:35.140Z,20.58
2022-08-23T14:39:52.283Z,20.57
2022-08-23T14:42:24.385Z,20.69
2022-08-23T14:44:52.860Z,20.66
2022-08-23T14:47:20.823Z,20.78
2022-08-23T14:49:53.271Z,20.94
2022-08-23T14:52:22.877Z,20.95
2022-08-23T14:54:53.586Z,20.96
2022-08-23T14:57:23.097Z,20.85
2022-08-23T14:59:51.426Z,20.89
2022-08-23T15:02:26.691Z,20.90
2022-08-23T15:04:55.879Z,20.94
2022-08-23T15:07:24.165Z,21.00
2022-08-23T15:09:55.257Z,20.97
2022-08-23T15:15:21.758Z,20.89
2022-08-23T15:17:52.703Z,20.82
2022-08-23T15:20:21.800Z,20.81
2022-08-23T15:22:55.511Z,20.69
2022-08-23T15:25:25.485Z,20.72
2022-08-23T15:27:56.035Z,20.57
2022-08-23T15:30:30.201Z,20.56
2022-08-23T15:33:01.536Z,20.37
2022-08-23T15:35:41.432Z,20.37
2022-08-23T15:38:10.970Z,19.96
2022-08-23T15:40:39.858Z,20.22
2022-08-23T15:43:09.863Z,20.17
2022-08-23T15:45:39.196Z,20.01
2022-08-23T15:48:12.897Z,19.99
2022-08-23T15:50:47.040Z,19.90
2022-08-23T15:53:16.285Z,19.84
2022-08-23T15:55:46.857Z,19.77
2022-08-23T15:58:18.542Z,19.61
2022-08-23T16:00:46.714Z,19.69
2022-08-23T16:03:20.685Z,19.60
2022-08-23T16:05:51.598Z,19.57
2022-08-23T16:08:22.763Z,19.40
2022-08-23T16:10:51.576Z,19.47
2022-08-23T16:13:21.957Z,19.52
2022-08-23T16:15:50.243Z,19.51
2022-08-23T16:18:18.885Z,19.50
2022-08-23T16:20:47.184Z,19.48
2022-08-23T16:23:15.413Z,19.46
2022-08-23T16:25:46.583Z,19.45
2022-08-23T16:28:16.126Z,19.43
2022-08-23T16:30:50.929Z,19.42
2022-08-23T16:33:23.869Z,19.18
2022-08-23T16:35:54.456Z,19.37
2022-08-23T16:38:22.509Z,19.27
2022-08-23T16:40:51.787Z,19.20
2022-08-23T16:43:20.014Z,19.25
2022-08-23T16:45:50.281Z,19.17
2022-08-23T16:48:18.834Z,19.13
2022-08-23T16:50:47.071Z,18.93
2022-08-23T16:53:15.827Z,18.97
2022-08-23T16:55:48.908Z,18.93
2022-08-23T16:58:17.032Z,18.88
2022-08-23T17:00:45.305Z,18.70
2022-08-23T17:03:19.179Z,18.81
2022-08-23T17:05:50.409Z,18.78
2022-08-23T17:08:18.827Z,18.61
2022-08-23T17:10:47.959Z,18.68
2022-08-23T17:13:18.647Z,18.67
2022-08-23T17:15:46.990Z,18.56
2022-08-23T17:18:17.112Z,18.39
2022-08-23T17:20:45.314Z,18.43
2022-08-23T17:23:14.006Z,18.38
2022-08-23T17:25:47.687Z,18.36
2022-08-23T17:28:17.525Z,18.38
2022-08-23T17:30:45.591Z,18.38
2022-08-23T17:33:13.627Z,18.34
2022-08-23T17:35:45.254Z,18.24
2022-08-23T17:38:13.474Z,17.99
2022-08-23T17:40:42.567Z,18.21
2022-08-23T17:43:12.347Z,17.89
2022-08-23T17:45:43.481Z,18.01
2022-08-23T17:48:12.038Z,17.94
2022-08-23T17:50:40.478Z,18.00
2022-08-23T17:53:10.864Z,17.98
2022-08-23T17:55:40.747Z,17.89
2022-08-23T17:58:10.447Z,17.94
2022-08-23T18:01:03.048Z,17.51
2022-08-23T18:03:31.955Z,17.79
2022-08-23T18:06:00.646Z,17.64
2022-08-23T18:08:30.115Z,17.75
2022-08-23T18:10:58.853Z,17.66
2022-08-23T18:13:27.006Z,17.52
2022-08-23T18:15:55.691Z,17.69
2022-08-23T18:18:33.430Z,17.48
2022-08-23T18:21:06.144Z,17.48
2022-08-23T18:23:39.101Z,17.48
2022-08-23T18:26:09.083Z,17.67
2022-08-23T18:28:39.059Z,17.31
2022-08-23T18:31:07.781Z,17.63
2022-08-23T18:33:46.814Z,17.54
2022-08-23T18:36:16.010Z,17.34
2022-08-23T18:38:45.917Z,17.55
2022-08-23T18:41:14.816Z,17.23
2022-08-23T18:43:43.591Z,17.25
2022-08-23T18:46:16.255Z,17.38
2022-08-23T18:48:50.580Z,17.42
2022-08-23T18:51:23.724Z,17.29
2022-08-23T18:53:53.406Z,17.25
2022-08-23T18:56:21.669Z,17.31
2022-08-23T18:58:49.840Z,17.23
2022-08-23T19:01:23.732Z,17.22
2022-08-23T19:03:56.432Z,17.21
2022-08-23T19:06:25.715Z,17.19
2022-08-23T19:08:55.841Z,17.23
2022-08-23T19:11:27.815Z,17.23
2022-08-23T19:13:56.899Z,17.17
2022-08-23T19:16:26.352Z,16.87
2022-08-23T19:18:55.215Z,16.98
2022-08-23T19:21:25.669Z,17.09
2022-08-23T19:23:56.907Z,16.88
2022-08-23T19:26:30.350Z,16.78
2022-08-23T19:29:11.595Z,16.84
2022-08-23T19:31:43.293Z,16.89
2022-08-23T19:34:11.872Z,16.86
2022-08-23T19:36:51.157Z,16.78
2022-08-23T19:39:28.734Z,16.77
2022-08-23T19:41:56.869Z,16.81
2022-08-23T19:44:24.856Z,16.47
2022-08-23T19:46:53.275Z,16.74
2022-08-23T19:49:21.220Z,16.77
2022-08-23T19:51:49.248Z,16.69
2022-08-23T19:54:17.964Z,16.68
2022-08-23T19:56:49.704Z,16.54
2022-08-23T19:59:21.478Z,16.63
2022-08-23T20:01:50.984Z,16.46
2022-08-23T20:04:19.575Z,16.59
2022-08-23T20:06:48.937Z,16.56
2022-08-23T20:09:17.649Z,16.53
2022-08-23T20:11:47.239Z,16.50
2022-08-23T20:14:15.956Z,16.43
2022-08-23T20:16:44.010Z,16.40
2022-08-23T20:19:13.047Z,16.32
2022-08-23T20:21:42.529Z,16.24
2022-08-23T20:24:13.758Z,16.28
2022-08-23T20:26:43.780Z,16.07
2022-08-23T20:29:16.917Z,16.21
2022-08-23T20:31:50.073Z,16.11
2022-08-23T20:34:18.480Z,16.20
2022-08-23T20:36:48.063Z,16.00
2022-08-23T20:39:20.415Z,16.00
2022-08-23T20:41:51.479Z,15.88
2022-08-23T20:44:22.875Z,15.95
2022-08-23T20:46:54.344Z,16.05
2022-08-23T20:49:23.558Z,15.88
2022-08-23T20:51:52.068Z,15.89
2022-08-23T20:54:21.158Z,15.77
2022-08-23T20:56:51.429Z,15.97
2022-08-23T20:59:21.665Z,15.98
2022-08-23T21:01:49.991Z,15.94
2022-08-23T21:04:18.322Z,15.89
2022-08-23T21:06:48.995Z,15.95
2022-08-23T21:09:21.117Z,15.90
2022-08-23T21:11:51.917Z,15.74
2022-08-23T21:14:22.588Z,15.78
2022-08-23T21:16:50.695Z,15.74
2022-08-23T21:19:19.056Z,15.43
2022-08-23T21:21:47.275Z,15.58
2022-08-23T21:24:15.598Z,15.49
2022-08-23T21:26:43.806Z,15.47
2022-08-23T21:29:12.404Z,15.42
2022-08-23T21:31:41.858Z,15.29
2022-08-23T21:34:09.931Z,15.03
2022-08-23T21:36:37.970Z,15.17
2022-08-23T21:39:07.536Z,15.10
2022-08-23T21:41:38.042Z,14.85
2022-08-23T21:44:08.843Z,14.84
2022-08-23T21:46:37.909Z,14.88
2022-08-23T21:49:08.042Z,14.80
2022-08-23T21:51:38.511Z,14.52
2022-08-23T21:54:09.069Z,14.44
2022-08-23T21:56:37.799Z,14.53
2022-08-23T21:59:08.381Z,14.46
2022-08-23T22:01:37.680Z,14.40
2022-08-23T22:04:09.977Z,14.23
2022-08-23T22:06:39.353Z,14.15
2022-08-23T22:09:09.072Z,14.29
2022-08-23T22:11:40.904Z,14.23
2022-08-23T22:14:09.436Z,14.22
2022-08-23T22:16:37.497Z,14.12
2022-08-23T22:19:07.301Z,14.03
2022-08-23T22:21:35.761Z,13.74
2022-08-23T22:24:04.129Z,13.83
2022-08-23T22:26:32.811Z,13.85
2022-08-23T22:29:01.185Z,13.56
2022-08-23T22:31:29.440Z,13.60
2022-08-23T22:33:57.768Z,13.61
2022-08-23T22:36:27.384Z,13.46
2022-08-23T22:38:56.393Z,13.59
2022-08-23T22:41:27.393Z,13.23
2022-08-23T22:43:56.283Z,13.48
2022-08-23T22:46:25.373Z,13.14
2022-08-23T22:48:54.116Z,13.18
2022-08-23T22:51:24.985Z,13.25
2022-08-23T22:53:57.162Z,13.07
2022-08-23T22:56:27.896Z,13.10
2022-08-23T22:58:56.508Z,13.06
2022-08-23T23:01:27.392Z,12.99
2022-08-23T23:03:58.145Z,13.03
2022-08-23T23:06:27.081Z,12.97
2022-08-23T23:08:57.682Z,12.87
2022-08-23T23:11:29.378Z,12.83
2022-08-23T23:13:58.290Z,12.74
2022-08-23T23:16:29.332Z,12.60
2022-08-23T23:19:15.809Z,12.46
2022-08-23T23:21:46.839Z,12.45
2022-08-23T23:24:18.856Z,12.57
2022-08-23T23:26:47.816Z,12.32
2022-08-23T23:29:16.178Z,12.31
2022-08-23T23:31:45.268Z,12.39
2022-08-23T23:34:13.905Z,12.12
2022-08-23T23:36:42.636Z,12.19
2022-08-23T23:39:12.434Z,12.23
2022-08-23T23:41:42.580Z,12.02
2022-08-23T23:44:11.163Z,12.05
2022-08-23T23:46:39.195Z,12.06
2022-08-23T23:49:07.723Z,11.99
2022-08-23T23:51:37.389Z,11.88
2022-08-23T23:54:07.486Z,11.70
2022-08-23T23:56:35.902Z,11.61
2022-08-23T23:59:05.424Z,11.44
